sensor_id;sensor_type;location;lat;lon;timestamp;P1;durP1;ratioP1;P2;durP2;ratioP2
52686;SDS011;38584;49.426;8.396;2023-07-29T00:00:49;11.82;;;3.40;;
52686;SDS011;38584;49.426;8.396;2023-07-29T00:03:14;9.02;;;3.40;;
52686;SDS011;38584;49.426;8.396;2023-07-29T00:05:47;9.55;;;3.13;;
52686;SDS011;38584;49.426;8.396;2023-07-29T00:08:15;12.80;;;3.65;;
52686;SDS011;38584;49.426;8.396;2023-07-29T00:10:49;8.23;;;3.30;;
52686;SDS011;38584;49.426;8.396;2023-07-29T00:13:20;7.72;;;3.30;;
52686;SDS011;38584;49.426;8.396;2023-07-29T00:15:48;8.18;;;3.35;;
52686;SDS011;38584;49.426;8.396;2023-07-29T00:18:13;11.70;;;3.90;;
52686;SDS011;38584;49.426;8.396;2023-07-29T00:20:38;8.37;;;3.27;;
52686;SDS011;38584;49.426;8.396;2023-07-29T00:23:06;10.25;;;3.30;;
52686;SDS011;38584;49.426;8.396;2023-07-29T00:25:37;11.18;;;3.25;;
52686;SDS011;38584;49.426;8.396;2023-07-29T00:28:02;9.55;;;2.60;;
52686;SDS011;38584;49.426;8.396;2023-07-29T00:30:27;7.80;;;2.57;;
52686;SDS011;38584;49.426;8.396;2023-07-29T00:32:53;8.02;;;2.60;;
52686;SDS011;38584;49.426;8.396;2023-07-29T00:35:18;11.15;;;3.17;;
52686;SDS011;38584;49.426;8.396;2023-07-29T00:37:46;5.70;;;2.45;;
52686;SDS011;38584;49.426;8.396;2023-07-29T00:40:21;9.50;;;2.90;;
52686;SDS011;38584;49.426;8.396;2023-07-29T00:42:46;8.65;;;2.60;;
52686;SDS011;38584;49.426;8.396;2023-07-29T00:45:11;6.30;;;2.80;;
52686;SDS011;38584;49.426;8.396;2023-07-29T00:47:37;9.00;;;2.90;;
52686;SDS011;38584;49.426;8.396;2023-07-29T00:50:02;6.90;;;2.90;;
52686;SDS011;38584;49.426;8.396;2023-07-29T00:52:43;9.75;;;2.80;;
52686;SDS011;38584;49.426;8.396;2023-07-29T00:55:11;7.68;;;2.80;;
52686;SDS011;38584;49.426;8.396;2023-07-29T00:57:36;7.47;;;2.78;;
52686;SDS011;38584;49.426;8.396;2023-07-29T01:00:02;6.93;;;2.60;;
52686;SDS011;38584;49.426;8.396;2023-07-29T01:02:29;7.03;;;2.30;;
52686;SDS011;38584;49.426;8.396;2023-07-29T01:04:55;5.40;;;2.42;;
52686;SDS011;38584;49.426;8.396;2023-07-29T01:09:56;11.50;;;2.60;;
52686;SDS011;38584;49.426;8.396;2023-07-29T01:15:22;8.88;;;2.80;;
52686;SDS011;38584;49.426;8.396;2023-07-29T01:18:04;5.90;;;2.42;;
52686;SDS011;38584;49.426;8.396;2023-07-29T01:20:37;9.98;;;2.33;;
52686;SDS011;38584;49.426;8.396;2023-07-29T01:23:03;9.55;;;2.30;;
52686;SDS011;38584;49.426;8.396;2023-07-29T01:25:28;9.20;;;2.60;;
52686;SDS011;38584;49.426;8.396;2023-07-29T01:27:54;10.13;;;3.43;;
52686;SDS011;38584;49.426;8.396;2023-07-29T01:30:20;6.15;;;2.22;;
52686;SDS011;38584;49.426;8.396;2023-07-29T01:32:54;7.90;;;2.35;;
52686;SDS011;38584;49.426;8.396;2023-07-29T01:35:23;9.87;;;2.30;;
52686;SDS011;38584;49.426;8.396;2023-07-29T01:37:51;8.27;;;2.60;;
52686;SDS011;38584;49.426;8.396;2023-07-29T01:40:17;5.72;;;2.17;;
52686;SDS011;38584;49.426;8.396;2023-07-29T01:42:42;7.38;;;2.38;;
52686;SDS011;38584;49.426;8.396;2023-07-29T01:45:08;6.20;;;2.50;;
52686;SDS011;38584;49.426;8.396;2023-07-29T01:47:36;7.28;;;2.33;;
52686;SDS011;38584;49.426;8.396;2023-07-29T01:50:03;6.63;;;2.40;;
52686;SDS011;38584;49.426;8.396;2023-07-29T01:52:28;8.60;;;2.60;;
52686;SDS011;38584;49.426;8.396;2023-07-29T01:54:53;8.07;;;2.40;;
52686;SDS011;38584;49.426;8.396;2023-07-29T01:57:19;5.23;;;2.23;;
52686;SDS011;38584;49.426;8.396;2023-07-29T01:59:50;8.17;;;2.30;;
52686;SDS011;38584;49.426;8.396;2023-07-29T02:02:15;11.60;;;2.65;;
52686;SDS011;38584;49.426;8.396;2023-07-29T02:04:40;10.93;;;2.67;;
52686;SDS011;38584;49.426;8.396;2023-07-29T02:07:09;7.17;;;2.40;;
52686;SDS011;38584;49.426;8.396;2023-07-29T02:09:34;8.45;;;2.53;;
52686;SDS011;38584;49.426;8.396;2023-07-29T02:12:02;8.00;;;2.27;;
52686;SDS011;38584;49.426;8.396;2023-07-29T02:14:27;7.10;;;2.25;;
52686;SDS011;38584;49.426;8.396;2023-07-29T02:16:53;5.97;;;2.20;;
52686;SDS011;38584;49.426;8.396;2023-07-29T02:19:18;15.77;;;3.03;;
52686;SDS011;38584;49.426;8.396;2023-07-29T02:21:46;8.50;;;2.40;;
52686;SDS011;38584;49.426;8.396;2023-07-29T02:24:14;8.07;;;2.30;;
52686;SDS011;38584;49.426;8.396;2023-07-29T02:26:40;8.15;;;2.50;;
52686;SDS011;38584;49.426;8.396;2023-07-29T02:29:15;7.85;;;2.70;;
52686;SDS011;38584;49.426;8.396;2023-07-29T02:31:40;10.38;;;2.70;;
52686;SDS011;38584;49.426;8.396;2023-07-29T02:34:05;14.00;;;2.97;;
52686;SDS011;38584;49.426;8.396;2023-07-29T02:36:33;10.30;;;2.73;;
52686;SDS011;38584;49.426;8.396;2023-07-29T02:38:58;9.50;;;2.65;;
52686;SDS011;38584;49.426;8.396;2023-07-29T02:41:26;8.02;;;2.70;;
52686;SDS011;38584;49.426;8.396;2023-07-29T02:43:51;6.05;;;2.33;;
52686;SDS011;38584;49.426;8.396;2023-07-29T02:46:17;7.47;;;3.03;;
52686;SDS011;38584;49.426;8.396;2023-07-29T02:48:51;7.43;;;2.55;;
52686;SDS011;38584;49.426;8.396;2023-07-29T02:51:16;9.38;;;2.65;;
52686;SDS011;38584;49.426;8.396;2023-07-29T02:53:41;6.07;;;2.60;;
52686;SDS011;38584;49.426;8.396;2023-07-29T02:56:07;6.70;;;2.67;;
52686;SDS011;38584;49.426;8.396;2023-07-29T02:58:34;8.15;;;2.70;;
52686;SDS011;38584;49.426;8.396;2023-07-29T03:01:02;11.40;;;2.90;;
52686;SDS011;38584;49.426;8.396;2023-07-29T03:03:27;5.50;;;2.50;;
52686;SDS011;38584;49.426;8.396;2023-07-29T03:08:24;5.72;;;2.75;;
52686;SDS011;38584;49.426;8.396;2023-07-29T03:10:49;8.75;;;2.70;;
52686;SDS011;38584;49.426;8.396;2023-07-29T03:13:14;8.73;;;2.70;;
52686;SDS011;38584;49.426;8.396;2023-07-29T03:15:42;9.73;;;2.87;;
52686;SDS011;38584;49.426;8.396;2023-07-29T03:18:14;10.50;;;3.13;;
52686;SDS011;38584;49.426;8.396;2023-07-29T03:20:39;10.50;;;2.92;;
52686;SDS011;38584;49.426;8.396;2023-07-29T03:23:07;10.50;;;3.17;;
52686;SDS011;38584;49.426;8.396;2023-07-29T03:25:32;8.68;;;3.10;;
52686;SDS011;38584;49.426;8.396;2023-07-29T03:27:57;8.93;;;3.05;;
52686;SDS011;38584;49.426;8.396;2023-07-29T03:30:22;9.87;;;3.50;;
52686;SDS011;38584;49.426;8.396;2023-07-29T03:32:51;8.37;;;3.20;;
52686;SDS011;38584;49.426;8.396;2023-07-29T03:35:19;11.80;;;3.47;;
52686;SDS011;38584;49.426;8.396;2023-07-29T03:37:44;9.30;;;3.75;;
52686;SDS011;38584;49.426;8.396;2023-07-29T03:40:09;11.03;;;3.63;;
52686;SDS011;38584;49.426;8.396;2023-07-29T03:42:35;8.93;;;3.30;;
52686;SDS011;38584;49.426;8.396;2023-07-29T03:45:00;8.23;;;3.25;;
52686;SDS011;38584;49.426;8.396;2023-07-29T03:47:25;8.30;;;3.38;;
52686;SDS011;38584;49.426;8.396;2023-07-29T03:49:56;9.77;;;3.43;;
52686;SDS011;38584;49.426;8.396;2023-07-29T03:52:21;13.77;;;3.78;;
52686;SDS011;38584;49.426;8.396;2023-07-29T03:54:49;10.17;;;3.67;;
52686;SDS011;38584;49.426;8.396;2023-07-29T03:57:15;13.20;;;3.45;;
52686;SDS011;38584;49.426;8.396;2023-07-29T03:59:40;9.50;;;3.38;;
52686;SDS011;38584;49.426;8.396;2023-07-29T04:02:05;9.60;;;3.23;;
52686;SDS011;38584;49.426;8.396;2023-07-29T04:04:30;10.18;;;3.40;;
52686;SDS011;38584;49.426;8.396;2023-07-29T04:06:59;9.27;;;3.38;;
52686;SDS011;38584;49.426;8.396;2023-07-29T04:09:24;15.60;;;3.42;;
52686;SDS011;38584;49.426;8.396;2023-07-29T04:11:49;10.50;;;3.30;;
52686;SDS011;38584;49.426;8.396;2023-07-29T04:14:14;9.93;;;3.55;;
52686;SDS011;38584;49.426;8.396;2023-07-29T04:16:42;10.35;;;3.40;;
52686;SDS011;38584;49.426;8.396;2023-07-29T04:19:07;8.18;;;3.35;;
52686;SDS011;38584;49.426;8.396;2023-07-29T04:21:33;10.48;;;3.28;;
52686;SDS011;38584;49.426;8.396;2023-07-29T04:23:58;7.97;;;3.30;;
52686;SDS011;38584;49.426;8.396;2023-07-29T04:26:23;9.93;;;3.20;;
52686;SDS011;38584;49.426;8.396;2023-07-29T04:28:48;12.77;;;3.33;;
52686;SDS011;38584;49.426;8.396;2023-07-29T04:31:14;10.40;;;3.30;;
52686;SDS011;38584;49.426;8.396;2023-07-29T04:33:39;9.13;;;3.33;;
52686;SDS011;38584;49.426;8.396;2023-07-29T04:36:04;13.88;;;3.47;;
52686;SDS011;38584;49.426;8.396;2023-07-29T04:38:30;9.03;;;3.20;;
52686;SDS011;38584;49.426;8.396;2023-07-29T04:40:56;8.07;;;3.30;;
52686;SDS011;38584;49.426;8.396;2023-07-29T04:43:21;10.20;;;3.30;;
52686;SDS011;38584;49.426;8.396;2023-07-29T04:45:46;10.10;;;3.80;;
52686;SDS011;38584;49.426;8.396;2023-07-29T04:48:11;11.25;;;3.55;;
52686;SDS011;38584;49.426;8.396;2023-07-29T04:50:36;11.93;;;4.23;;
52686;SDS011;38584;49.426;8.396;2023-07-29T04:53:07;11.27;;;4.13;;
52686;SDS011;38584;49.426;8.396;2023-07-29T04:55:41;11.20;;;4.40;;
52686;SDS011;38584;49.426;8.396;2023-07-29T04:58:09;15.23;;;4.77;;
52686;SDS011;38584;49.426;8.396;2023-07-29T05:00:40;13.57;;;4.85;;
52686;SDS011;38584;49.426;8.396;2023-07-29T05:03:06;13.75;;;4.82;;
52686;SDS011;38584;49.426;8.396;2023-07-29T05:05:31;9.95;;;4.40;;
52686;SDS011;38584;49.426;8.396;2023-07-29T05:07:56;15.97;;;4.47;;
52686;SDS011;38584;49.426;8.396;2023-07-29T05:10:21;11.27;;;4.57;;
52686;SDS011;38584;49.426;8.396;2023-07-29T05:12:47;12.93;;;4.40;;
52686;SDS011;38584;49.426;8.396;2023-07-29T05:15:12;10.85;;;3.78;;
52686;SDS011;38584;49.426;8.396;2023-07-29T05:17:43;10.48;;;3.42;;
52686;SDS011;38584;49.426;8.396;2023-07-29T05:20:08;11.82;;;3.45;;
52686;SDS011;38584;49.426;8.396;2023-07-29T05:22:33;7.70;;;3.22;;
52686;SDS011;38584;49.426;8.396;2023-07-29T05:25:02;9.77;;;2.93;;
52686;SDS011;38584;49.426;8.396;2023-07-29T05:27:27;11.75;;;2.85;;
52686;SDS011;38584;49.426;8.396;2023-07-29T05:29:55;7.60;;;2.50;;
52686;SDS011;38584;49.426;8.396;2023-07-29T05:32:21;5.55;;;2.33;;
52686;SDS011;38584;49.426;8.396;2023-07-29T05:34:46;7.20;;;2.40;;
52686;SDS011;38584;49.426;8.396;2023-07-29T05:37:11;7.63;;;2.63;;
52686;SDS011;38584;49.426;8.396;2023-07-29T05:39:36;7.07;;;2.40;;
52686;SDS011;38584;49.426;8.396;2023-07-29T05:42:02;6.38;;;2.25;;
52686;SDS011;38584;49.426;8.396;2023-07-29T05:44:28;6.38;;;2.60;;
52686;SDS011;38584;49.426;8.396;2023-07-29T05:46:55;6.55;;;2.42;;
52686;SDS011;38584;49.426;8.396;2023-07-29T05:49:20;9.55;;;2.80;;
52686;SDS011;38584;49.426;8.396;2023-07-29T05:51:51;6.55;;;2.70;;
52686;SDS011;38584;49.426;8.396;2023-07-29T05:54:17;5.30;;;2.60;;
52686;SDS011;38584;49.426;8.396;2023-07-29T05:56:43;8.55;;;2.60;;
52686;SDS011;38584;49.426;8.396;2023-07-29T05:59:08;8.83;;;2.97;;
52686;SDS011;38584;49.426;8.396;2023-07-29T06:01:36;7.03;;;2.50;;
52686;SDS011;38584;49.426;8.396;2023-07-29T06:04:01;7.00;;;2.70;;
52686;SDS011;38584;49.426;8.396;2023-07-29T06:06:27;9.63;;;2.60;;
52686;SDS011;38584;49.426;8.396;2023-07-29T06:08:55;5.20;;;2.35;;
52686;SDS011;38584;49.426;8.396;2023-07-29T06:11:20;6.50;;;2.35;;
52686;SDS011;38584;49.426;8.396;2023-07-29T06:13:51;6.80;;;2.40;;
52686;SDS011;38584;49.426;8.396;2023-07-29T06:16:16;7.65;;;2.58;;
52686;SDS011;38584;49.426;8.396;2023-07-29T06:18:45;6.78;;;2.50;;
52686;SDS011;38584;49.426;8.396;2023-07-29T06:21:10;8.48;;;3.13;;
52686;SDS011;38584;49.426;8.396;2023-07-29T06:23:37;8.10;;;2.70;;
52686;SDS011;38584;49.426;8.396;2023-07-29T06:26:08;8.60;;;3.30;;
52686;SDS011;38584;49.426;8.396;2023-07-29T06:28:36;9.02;;;3.28;;
52686;SDS011;38584;49.426;8.396;2023-07-29T06:31:02;10.57;;;3.42;;
52686;SDS011;38584;49.426;8.396;2023-07-29T06:33:27;10.37;;;3.23;;
52686;SDS011;38584;49.426;8.396;2023-07-29T06:35:52;8.67;;;3.17;;
52686;SDS011;38584;49.426;8.396;2023-07-29T06:38:17;9.60;;;3.10;;
52686;SDS011;38584;49.426;8.396;2023-07-29T06:40:46;10.27;;;2.83;;
52686;SDS011;38584;49.426;8.396;2023-07-29T06:43:11;7.23;;;2.90;;
52686;SDS011;38584;49.426;8.396;2023-07-29T06:45:36;5.25;;;2.25;;
52686;SDS011;38584;49.426;8.396;2023-07-29T06:48:02;8.80;;;3.00;;
52686;SDS011;38584;49.426;8.396;2023-07-29T06:50:27;7.15;;;2.80;;
52686;SDS011;38584;49.426;8.396;2023-07-29T06:52:52;10.53;;;2.90;;
52686;SDS011;38584;49.426;8.396;2023-07-29T06:55:17;9.50;;;2.70;;
52686;SDS011;38584;49.426;8.396;2023-07-29T06:57:52;9.45;;;2.70;;
52686;SDS011;38584;49.426;8.396;2023-07-29T07:02:42;7.38;;;2.70;;
52686;SDS011;38584;49.426;8.396;2023-07-29T07:05:13;7.87;;;2.70;;
52686;SDS011;38584;49.426;8.396;2023-07-29T07:07:41;8.85;;;2.72;;
52686;SDS011;38584;49.426;8.396;2023-07-29T07:10:10;7.22;;;2.60;;
52686;SDS011;38584;49.426;8.396;2023-07-29T07:12:35;7.20;;;2.40;;
52686;SDS011;38584;49.426;8.396;2023-07-29T07:15:00;6.07;;;2.30;;
52686;SDS011;38584;49.426;8.396;2023-07-29T07:17:26;6.43;;;2.20;;
52686;SDS011;38584;49.426;8.396;2023-07-29T07:19:51;7.15;;;2.42;;
52686;SDS011;38584;49.426;8.396;2023-07-29T07:22:16;7.63;;;2.50;;
52686;SDS011;38584;49.426;8.396;2023-07-29T07:24:50;6.63;;;2.60;;
52686;SDS011;38584;49.426;8.396;2023-07-29T07:27:15;7.57;;;2.40;;
52686;SDS011;38584;49.426;8.396;2023-07-29T07:29:44;5.80;;;2.00;;
52686;SDS011;38584;49.426;8.396;2023-07-29T07:32:09;5.95;;;2.03;;
52686;SDS011;38584;49.426;8.396;2023-07-29T07:34:37;6.47;;;2.10;;
52686;SDS011;38584;49.426;8.396;2023-07-29T07:37:05;9.45;;;2.40;;
52686;SDS011;38584;49.426;8.396;2023-07-29T07:39:31;6.20;;;1.92;;
52686;SDS011;38584;49.426;8.396;2023-07-29T07:41:59;7.68;;;2.10;;
52686;SDS011;38584;49.426;8.396;2023-07-29T07:44:24;8.82;;;2.17;;
52686;SDS011;38584;49.426;8.396;2023-07-29T07:46:51;7.22;;;2.10;;
52686;SDS011;38584;49.426;8.396;2023-07-29T07:49:22;5.22;;;1.67;;
52686;SDS011;38584;49.426;8.396;2023-07-29T07:51:53;7.20;;;2.20;;
52686;SDS011;38584;49.426;8.396;2023-07-29T07:54:21;5.38;;;2.20;;
52686;SDS011;38584;49.426;8.396;2023-07-29T07:56:47;11.68;;;1.77;;
52686;SDS011;38584;49.426;8.396;2023-07-29T07:59:12;7.30;;;2.13;;
52686;SDS011;38584;49.426;8.396;2023-07-29T08:01:38;5.63;;;2.00;;
52686;SDS011;38584;49.426;8.396;2023-07-29T08:04:06;5.43;;;2.22;;
52686;SDS011;38584;49.426;8.396;2023-07-29T08:06:34;7.10;;;2.20;;
52686;SDS011;38584;49.426;8.396;2023-07-29T08:09:06;5.97;;;2.25;;
52686;SDS011;38584;49.426;8.396;2023-07-29T08:11:31;6.68;;;2.13;;
52686;SDS011;38584;49.426;8.396;2023-07-29T08:13:57;5.47;;;2.27;;
52686;SDS011;38584;49.426;8.396;2023-07-29T08:16:23;11.07;;;2.80;;
52686;SDS011;38584;49.426;8.396;2023-07-29T08:18:48;7.43;;;2.75;;
52686;SDS011;38584;49.426;8.396;2023-07-29T08:21:13;10.23;;;2.63;;
52686;SDS011;38584;49.426;8.396;2023-07-29T08:23:41;5.87;;;2.40;;
52686;SDS011;38584;49.426;8.396;2023-07-29T08:26:10;7.80;;;2.63;;
52686;SDS011;38584;49.426;8.396;2023-07-29T08:28:38;7.20;;;2.50;;
52686;SDS011;38584;49.426;8.396;2023-07-29T08:31:04;13.18;;;2.80;;
52686;SDS011;38584;49.426;8.396;2023-07-29T08:33:30;6.40;;;2.40;;
52686;SDS011;38584;49.426;8.396;2023-07-29T08:35:55;8.13;;;2.60;;
52686;SDS011;38584;49.426;8.396;2023-07-29T08:38:23;5.63;;;2.58;;
52686;SDS011;38584;49.426;8.396;2023-07-29T08:41:06;6.88;;;2.55;;
52686;SDS011;38584;49.426;8.396;2023-07-29T08:43:52;7.43;;;2.55;;
52686;SDS011;38584;49.426;8.396;2023-07-29T08:46:20;6.05;;;2.50;;
52686;SDS011;38584;49.426;8.396;2023-07-29T08:48:45;6.75;;;2.47;;
52686;SDS011;38584;49.426;8.396;2023-07-29T08:51:11;5.55;;;2.30;;
52686;SDS011;38584;49.426;8.396;2023-07-29T08:53:39;6.22;;;2.22;;
52686;SDS011;38584;49.426;8.396;2023-07-29T08:56:05;5.00;;;2.10;;
52686;SDS011;38584;49.426;8.396;2023-07-29T08:58:30;6.20;;;2.30;;
52686;SDS011;38584;49.426;8.396;2023-07-29T09:00:56;8.90;;;2.20;;
52686;SDS011;38584;49.426;8.396;2023-07-29T09:03:21;9.65;;;2.55;;
52686;SDS011;38584;49.426;8.396;2023-07-29T09:05:49;5.63;;;2.10;;
52686;SDS011;38584;49.426;8.396;2023-07-29T09:08:15;7.97;;;2.20;;
52686;SDS011;38584;49.426;8.396;2023-07-29T09:10:40;8.70;;;2.03;;
52686;SDS011;38584;49.426;8.396;2023-07-29T09:13:06;6.07;;;2.30;;
52686;SDS011;38584;49.426;8.396;2023-07-29T09:15:35;4.40;;;1.90;;
52686;SDS011;38584;49.426;8.396;2023-07-29T09:18:10;7.45;;;2.17;;
52686;SDS011;38584;49.426;8.396;2023-07-29T09:20:36;5.13;;;2.00;;
52686;SDS011;38584;49.426;8.396;2023-07-29T09:23:01;4.60;;;2.03;;
52686;SDS011;38584;49.426;8.396;2023-07-29T09:25:27;5.95;;;2.00;;
52686;SDS011;38584;49.426;8.396;2023-07-29T09:27:52;5.63;;;1.83;;
52686;SDS011;38584;49.426;8.396;2023-07-29T09:30:27;4.80;;;1.70;;
52686;SDS011;38584;49.426;8.396;2023-07-29T09:32:56;8.80;;;2.00;;
52686;SDS011;38584;49.426;8.396;2023-07-29T09:35:22;6.32;;;1.90;;
52686;SDS011;38584;49.426;8.396;2023-07-29T09:37:47;9.23;;;1.92;;
52686;SDS011;38584;49.426;8.396;2023-07-29T09:40:22;3.60;;;1.85;;
52686;SDS011;38584;49.426;8.396;2023-07-29T09:42:56;5.50;;;1.90;;
52686;SDS011;38584;49.426;8.396;2023-07-29T09:47:46;6.15;;;1.90;;
52686;SDS011;38584;49.426;8.396;2023-07-29T09:50:15;3.33;;;1.57;;
52686;SDS011;38584;49.426;8.396;2023-07-29T09:52:43;4.82;;;2.00;;
52686;SDS011;38584;49.426;8.396;2023-07-29T09:55:19;4.35;;;2.08;;
52686;SDS011;38584;49.426;8.396;2023-07-29T09:57:44;9.57;;;1.70;;
52686;SDS011;38584;49.426;8.396;2023-07-29T10:00:19;6.53;;;2.10;;
52686;SDS011;38584;49.426;8.396;2023-07-29T10:02:44;4.40;;;1.60;;
52686;SDS011;38584;49.426;8.396;2023-07-29T10:05:10;5.07;;;1.70;;
52686;SDS011;38584;49.426;8.396;2023-07-29T10:07:39;6.73;;;1.90;;
52686;SDS011;38584;49.426;8.396;2023-07-29T10:10:07;5.13;;;1.80;;
52686;SDS011;38584;49.426;8.396;2023-07-29T10:12:39;5.40;;;1.88;;
52686;SDS011;38584;49.426;8.396;2023-07-29T10:15:05;4.45;;;1.80;;
52686;SDS011;38584;49.426;8.396;2023-07-29T10:17:31;3.45;;;1.95;;
52686;SDS011;38584;49.426;8.396;2023-07-29T10:19:58;4.53;;;1.73;;
52686;SDS011;38584;49.426;8.396;2023-07-29T10:22:24;5.82;;;1.95;;
52686;SDS011;38584;49.426;8.396;2023-07-29T10:24:53;5.57;;;1.90;;
52686;SDS011;38584;49.426;8.396;2023-07-29T10:27:22;6.68;;;1.67;;
52686;SDS011;38584;49.426;8.396;2023-07-29T10:29:48;5.22;;;2.03;;
52686;SDS011;38584;49.426;8.396;2023-07-29T10:32:20;3.92;;;1.77;;
52686;SDS011;38584;49.426;8.396;2023-07-29T10:34:48;5.35;;;1.70;;
52686;SDS011;38584;49.426;8.396;2023-07-29T10:37:13;5.40;;;1.83;;
52686;SDS011;38584;49.426;8.396;2023-07-29T10:39:39;4.97;;;1.90;;
52686;SDS011;38584;49.426;8.396;2023-07-29T10:42:10;3.00;;;1.70;;
52686;SDS011;38584;49.426;8.396;2023-07-29T10:44:56;5.75;;;1.85;;
52686;SDS011;38584;49.426;8.396;2023-07-29T10:47:24;16.90;;;3.35;;
52686;SDS011;38584;49.426;8.396;2023-07-29T10:49:54;7.15;;;1.88;;
52686;SDS011;38584;49.426;8.396;2023-07-29T10:55:04;5.30;;;1.88;;
52686;SDS011;38584;49.426;8.396;2023-07-29T10:57:47;5.25;;;1.70;;
52686;SDS011;38584;49.426;8.396;2023-07-29T11:00:12;3.30;;;1.53;;
52686;SDS011;38584;49.426;8.396;2023-07-29T11:02:40;3.53;;;1.70;;
52686;SDS011;38584;49.426;8.396;2023-07-29T11:05:21;3.40;;;1.60;;
52686;SDS011;38584;49.426;8.396;2023-07-29T11:07:49;5.35;;;1.80;;
52686;SDS011;38584;49.426;8.396;2023-07-29T11:10:16;8.77;;;1.80;;
52686;SDS011;38584;49.426;8.396;2023-07-29T11:17:37;7.05;;;2.50;;
52686;SDS011;38584;49.426;8.396;2023-07-29T11:20:06;5.43;;;1.70;;
52686;SDS011;38584;49.426;8.396;2023-07-29T11:22:36;5.25;;;1.90;;
52686;SDS011;38584;49.426;8.396;2023-07-29T11:25:09;4.28;;;1.83;;
52686;SDS011;38584;49.426;8.396;2023-07-29T11:27:35;3.75;;;1.80;;
52686;SDS011;38584;49.426;8.396;2023-07-29T11:30:01;5.22;;;1.85;;
52686;SDS011;38584;49.426;8.396;2023-07-29T11:32:26;4.05;;;1.60;;
52686;SDS011;38584;49.426;8.396;2023-07-29T11:34:54;5.83;;;1.80;;
52686;SDS011;38584;49.426;8.396;2023-07-29T11:37:20;2.53;;;1.58;;
52686;SDS011;38584;49.426;8.396;2023-07-29T11:39:47;5.32;;;1.92;;
52686;SDS011;38584;49.426;8.396;2023-07-29T11:42:14;6.33;;;2.10;;
52686;SDS011;38584;49.426;8.396;2023-07-29T11:44:39;4.63;;;1.63;;
52686;SDS011;38584;49.426;8.396;2023-07-29T11:47:08;3.53;;;1.70;;
52686;SDS011;38584;49.426;8.396;2023-07-29T11:49:33;3.65;;;1.70;;
52686;SDS011;38584;49.426;8.396;2023-07-29T11:52:02;3.92;;;1.70;;
52686;SDS011;38584;49.426;8.396;2023-07-29T11:54:37;3.33;;;1.70;;
52686;SDS011;38584;49.426;8.396;2023-07-29T11:57:03;5.05;;;1.80;;
52686;SDS011;38584;49.426;8.396;2023-07-29T11:59:35;3.53;;;1.50;;
52686;SDS011;38584;49.426;8.396;2023-07-29T12:02:05;3.85;;;1.70;;
52686;SDS011;38584;49.426;8.396;2023-07-29T12:04:30;4.70;;;1.90;;
52686;SDS011;38584;49.426;8.396;2023-07-29T12:06:56;5.25;;;2.20;;
52686;SDS011;38584;49.426;8.396;2023-07-29T12:09:21;6.47;;;2.00;;
52686;SDS011;38584;49.426;8.396;2023-07-29T12:11:46;3.60;;;1.77;;
52686;SDS011;38584;49.426;8.396;2023-07-29T12:14:12;3.30;;;1.60;;
52686;SDS011;38584;49.426;8.396;2023-07-29T12:16:41;8.13;;;1.80;;
52686;SDS011;38584;49.426;8.396;2023-07-29T12:19:06;3.40;;;1.75;;
52686;SDS011;38584;49.426;8.396;2023-07-29T12:21:37;5.37;;;1.90;;
52686;SDS011;38584;49.426;8.396;2023-07-29T12:24:02;3.78;;;1.80;;
52686;SDS011;38584;49.426;8.396;2023-07-29T12:26:30;4.63;;;1.90;;
52686;SDS011;38584;49.426;8.396;2023-07-29T12:28:56;3.53;;;1.73;;
52686;SDS011;38584;49.426;8.396;2023-07-29T12:31:21;2.40;;;1.50;;
52686;SDS011;38584;49.426;8.396;2023-07-29T12:33:46;4.20;;;1.73;;
52686;SDS011;38584;49.426;8.396;2023-07-29T12:36:12;4.43;;;1.77;;
52686;SDS011;38584;49.426;8.396;2023-07-29T12:38:37;8.63;;;1.77;;
52686;SDS011;38584;49.426;8.396;2023-07-29T12:41:02;3.27;;;1.73;;
52686;SDS011;38584;49.426;8.396;2023-07-29T12:43:27;5.27;;;1.80;;
52686;SDS011;38584;49.426;8.396;2023-07-29T12:45:53;5.95;;;1.77;;
52686;SDS011;38584;49.426;8.396;2023-07-29T12:48:18;4.53;;;1.83;;
52686;SDS011;38584;49.426;8.396;2023-07-29T12:50:43;5.43;;;1.90;;
52686;SDS011;38584;49.426;8.396;2023-07-29T12:53:08;4.03;;;2.03;;
52686;SDS011;38584;49.426;8.396;2023-07-29T12:55:37;3.70;;;1.70;;
52686;SDS011;38584;49.426;8.396;2023-07-29T12:58:02;5.90;;;1.80;;
52686;SDS011;38584;49.426;8.396;2023-07-29T13:00:27;3.83;;;1.85;;
52686;SDS011;38584;49.426;8.396;2023-07-29T13:02:56;2.55;;;1.60;;
52686;SDS011;38584;49.426;8.396;2023-07-29T13:05:24;6.55;;;2.10;;
52686;SDS011;38584;49.426;8.396;2023-07-29T13:07:49;3.22;;;1.60;;
52686;SDS011;38584;49.426;8.396;2023-07-29T13:10:14;3.43;;;1.87;;
52686;SDS011;38584;49.426;8.396;2023-07-29T13:12:39;4.13;;;1.80;;
52686;SDS011;38584;49.426;8.396;2023-07-29T13:15:10;8.30;;;1.80;;
52686;SDS011;38584;49.426;8.396;2023-07-29T13:17:41;5.20;;;1.67;;
52686;SDS011;38584;49.426;8.396;2023-07-29T13:20:06;5.30;;;1.90;;
52686;SDS011;38584;49.426;8.396;2023-07-29T13:22:32;2.38;;;1.42;;
52686;SDS011;38584;49.426;8.396;2023-07-29T13:24:57;7.60;;;1.80;;
52686;SDS011;38584;49.426;8.396;2023-07-29T13:27:22;4.23;;;1.50;;
52686;SDS011;38584;49.426;8.396;2023-07-29T13:29:49;6.03;;;1.90;;
52686;SDS011;38584;49.426;8.396;2023-07-29T13:32:14;6.10;;;1.77;;
52686;SDS011;38584;49.426;8.396;2023-07-29T13:34:39;4.07;;;2.00;;
52686;SDS011;38584;49.426;8.396;2023-07-29T13:37:05;4.03;;;1.70;;
52686;SDS011;38584;49.426;8.396;2023-07-29T13:39:34;6.90;;;2.17;;
52686;SDS011;38584;49.426;8.396;2023-07-29T13:41:59;5.22;;;1.83;;
52686;SDS011;38584;49.426;8.396;2023-07-29T13:44:24;5.30;;;1.93;;
52686;SDS011;38584;49.426;8.396;2023-07-29T13:46:49;5.90;;;1.90;;
52686;SDS011;38584;49.426;8.396;2023-07-29T13:49:17;9.90;;;2.10;;
52686;SDS011;38584;49.426;8.396;2023-07-29T13:51:43;3.28;;;1.60;;
52686;SDS011;38584;49.426;8.396;2023-07-29T13:54:08;6.27;;;1.90;;
52686;SDS011;38584;49.426;8.396;2023-07-29T13:56:33;5.23;;;2.00;;
52686;SDS011;38584;49.426;8.396;2023-07-29T13:58:58;5.47;;;1.83;;
52686;SDS011;38584;49.426;8.396;2023-07-29T14:01:26;3.23;;;1.60;;
52686;SDS011;38584;49.426;8.396;2023-07-29T14:03:51;4.65;;;1.70;;
52686;SDS011;38584;49.426;8.396;2023-07-29T14:06:19;5.23;;;1.97;;
52686;SDS011;38584;49.426;8.396;2023-07-29T14:08:47;4.10;;;1.90;;
52686;SDS011;38584;49.426;8.396;2023-07-29T14:11:13;7.72;;;2.20;;
52686;SDS011;38584;49.426;8.396;2023-07-29T14:13:47;3.57;;;1.80;;
52686;SDS011;38584;49.426;8.396;2023-07-29T14:16:18;2.88;;;1.60;;
52686;SDS011;38584;49.426;8.396;2023-07-29T14:18:43;3.38;;;1.80;;
52686;SDS011;38584;49.426;8.396;2023-07-29T14:21:08;4.87;;;1.90;;
52686;SDS011;38584;49.426;8.396;2023-07-29T14:23:39;6.70;;;2.03;;
52686;SDS011;38584;49.426;8.396;2023-07-29T14:26:05;7.53;;;1.90;;
52686;SDS011;38584;49.426;8.396;2023-07-29T14:28:33;4.70;;;1.60;;
52686;SDS011;38584;49.426;8.396;2023-07-29T14:31:01;4.85;;;2.05;;
52686;SDS011;38584;49.426;8.396;2023-07-29T14:33:26;4.50;;;1.90;;
52686;SDS011;38584;49.426;8.396;2023-07-29T14:35:51;4.60;;;1.85;;
52686;SDS011;38584;49.426;8.396;2023-07-29T14:38:16;5.70;;;2.00;;
52686;SDS011;38584;49.426;8.396;2023-07-29T14:40:41;7.27;;;2.20;;
52686;SDS011;38584;49.426;8.396;2023-07-29T14:43:07;7.10;;;1.88;;
52686;SDS011;38584;49.426;8.396;2023-07-29T14:45:38;4.50;;;1.70;;
52686;SDS011;38584;49.426;8.396;2023-07-29T14:48:03;6.03;;;2.05;;
52686;SDS011;38584;49.426;8.396;2023-07-29T14:50:28;7.45;;;2.03;;
52686;SDS011;38584;49.426;8.396;2023-07-29T14:52:53;8.43;;;2.00;;
52686;SDS011;38584;49.426;8.396;2023-07-29T14:55:19;3.87;;;1.70;;
52686;SDS011;38584;49.426;8.396;2023-07-29T14:57:45;4.45;;;1.80;;
52686;SDS011;38584;49.426;8.396;2023-07-29T15:00:13;5.53;;;2.20;;
52686;SDS011;38584;49.426;8.396;2023-07-29T15:02:42;3.78;;;1.55;;
52686;SDS011;38584;49.426;8.396;2023-07-29T15:05:10;4.95;;;1.80;;